Time;durP1;ratioP1;P1;durP2;ratioP2;P2;SDS_P1;SDS_P2;PMS_P1;PMS_P2;Temp;Humidity;BMP_temperature;BMP_pressure;BME280_temperature;BME280_humidity;BME280_pressure;Samples;Min_cycle;Max_cycle;Signal;HPM_P1;HPM_P2
2022/05/10 00:01:32;;;;;;;17.20;6.50;;;;;;;13.44;63.50;95221.53;5134434;27;20705;-74
2022/05/10 00:04:00;;;;;;;11.53;7.00;;;;;;;13.44;63.74;95227.56;5129943;27;20215;-74
2022/05/10 00:06:31;;;;;;;12.87;7.37;;;;;;;13.40;63.96;95218.56;5136563;27;20210;-74
2022/05/10 00:08:58;;;;;;;12.80;6.97;;;;;;;13.41;63.96;95216.75;5132310;27;20291;-74
2022/05/10 00:11:25;;;;;;;15.47;7.20;;;;;;;13.45;63.69;95223.09;5133589;27;20546;-75
2022/05/10 00:13:53;;;;;;;13.33;7.30;;;;;;;13.37;63.26;95211.16;5129430;27;20283;-75
2022/05/10 00:16:20;;;;;;;14.73;6.83;;;;;;;13.40;63.61;95223.78;5128139;27;20252;-75
2022/05/10 00:18:48;;;;;;;17.63;7.30;;;;;;;13.37;63.97;95215.59;5128801;27;20202;-75
2022/05/10 00:21:20;;;;;;;16.47;7.50;;;;;;;13.31;63.72;95217.28;5132013;27;20235;-75
2022/05/10 00:23:47;;;;;;;18.83;6.90;;;;;;;13.23;63.54;95208.94;5126587;27;20275;-74
2022/05/10 00:26:14;;;;;;;12.97;7.03;;;;;;;13.17;64.04;95212.44;5131315;27;20756;-74
2022/05/10 00:28:41;;;;;;;14.40;7.07;;;;;;;13.14;64.44;95218.09;5134780;27;20207;-75
2022/05/10 00:31:12;;;;;;;12.70;7.40;;;;;;;13.10;64.96;95207.31;5134113;27;20206;-75
2022/05/10 00:33:39;;;;;;;18.33;7.77;;;;;;;13.12;64.81;95215.72;5134499;27;20187;-77
2022/05/10 00:36:08;;;;;;;21.23;9.10;;;;;;;13.14;64.94;95218.88;5131301;27;20199;-79
2022/05/10 00:38:38;;;;;;;18.37;9.07;;;;;;;13.13;63.96;95217.28;5130340;27;20358;-75
2022/05/10 00:41:10;;;;;;;15.97;8.57;;;;;;;13.13;63.71;95219.13;5130237;27;20194;-76
2022/05/10 00:43:41;;;;;;;15.97;7.83;;;;;;;13.15;63.59;95217.88;5131312;27;20217;-77
2022/05/10 00:46:15;;;;;;;16.23;7.60;;;;;;;13.18;63.39;95219.25;5128286;27;20218;-76
2022/05/10 00:48:46;;;;;;;13.70;7.10;;;;;;;13.12;63.73;95220.13;5129691;27;20198;-75
2022/05/10 00:51:20;;;;;;;16.07;7.40;;;;;;;13.07;64.47;95215.56;5123596;27;20210;-75
2022/05/10 00:53:54;;;;;;;15.27;7.40;;;;;;;13.03;64.30;95223.00;5124153;27;20206;-75
2022/05/10 00:56:31;;;;;;;15.63;7.67;;;;;;;12.94;65.24;95215.69;5124060;27;20191;-75
2022/05/10 00:59:02;;;;;;;14.60;7.67;;;;;;;12.87;65.29;95220.19;5128228;27;20200;-76
2022/05/10 01:01:33;;;;;;;13.43;7.13;;;;;;;12.80;65.18;95217.66;5121547;27;20210;-76
2022/05/10 01:04:11;;;;;;;12.37;6.43;;;;;;;12.80;65.04;95222.06;5126272;27;20245;-76
2022/05/10 01:06:46;;;;;;;13.63;5.63;;;;;;;12.71;65.26;95207.72;5123306;27;20184;-76
2022/05/10 01:09:20;;;;;;;9.53;5.80;;;;;;;12.66;66.11;95216.19;5120878;27;20259;-76
2022/05/10 01:11:52;;;;;;;13.30;6.20;;;;;;;12.56;66.81;95208.06;5117817;27;20275;-75
2022/05/10 01:14:29;;;;;;;10.73;6.43;;;;;;;12.47;67.06;95204.94;5118424;27;20192;-76
2022/05/10 01:16:57;;;;;;;15.57;5.90;;;;;;;12.48;67.79;95211.78;5124178;27;20218;-76
2022/05/10 01:19:24;;;;;;;14.90;6.80;;;;;;;12.41;68.16;95202.41;5122588;27;20203;-77
2022/05/10 01:22:14;;;;;;;18.83;7.23;;;;;;;12.47;68.35;95198.94;5127349;27;20235;-75
2022/05/10 01:24:59;;;;;;;11.37;6.43;;;;;;;12.43;68.49;95201.19;5120708;27;20223;-75
2022/05/10 01:27:41;;;;;;;15.10;6.13;;;;;;;12.40;68.48;95195.59;5128344;27;20199;-75
2022/05/10 01:30:14;;;;;;;13.17;6.50;;;;;;;12.34;68.05;95194.66;5123708;27;20198;-75
2022/05/10 01:35:38;;;;;;;11.93;6.47;;;;;;;12.22;68.82;95195.56;5125774;27;20199;-76
2022/05/10 01:38:09;;;;;;;12.07;7.13;;;;;;;12.18;69.50;95200.41;5121757;27;20601;-76
2022/05/10 01:40:39;;;;;;;14.23;7.03;;;;;;;12.14;69.86;95199.25;5125046;27;20690;-75
2022/05/10 01:43:10;;;;;;;20.73;9.47;;;;;;;12.15;70.14;95197.44;5123162;27;20677;-75
2022/05/10 01:45:44;;;;;;;21.40;8.97;;;;;;;12.18;70.33;95200.41;5125240;27;20222;-76
2022/05/10 01:48:16;;;;;;;20.73;9.93;;;;;;;12.15;70.44;95205.28;5122143;27;20194;-76
2022/05/10 01:50:49;;;;;;;26.73;10.87;;;;;;;12.12;71.39;95190.84;5127848;27;20656;-76
2022/05/10 01:53:19;;;;;;;31.30;11.70;;;;;;;12.13;71.66;95197.66;5121665;27;20662;-76
2022/05/10 01:55:48;;;;;;;22.90;11.13;;;;;;;12.12;72.12;95183.03;5124671;27;20208;-75
2022/05/10 01:58:17;;;;;;;26.90;9.20;;;;;;;12.06;72.03;95183.91;5121097;27;20199;-76
2022/05/10 02:00:55;;;;;;;19.83;8.93;;;;;;;12.03;72.11;95186.94;5125454;27;20198;-77
2022/05/10 02:03:26;;;;;;;17.73;8.53;;;;;;;12.01;71.60;95185.53;5125217;27;20566;-76
2022/05/10 02:05:58;;;;;;;17.97;8.40;;;;;;;12.02;70.22;95194.94;5127299;27;20219;-75
2022/05/10 02:08:34;;;;;;;24.77;9.67;;;;;;;11.88;71.36;95187.25;5128548;27;20198;-76
2022/05/10 02:11:07;;;;;;;31.53;12.73;;;;;;;11.92;71.69;95185.78;5124875;27;20191;-76
2022/05/10 02:13:40;;;;;;;35.87;14.27;;;;;;;11.82;71.93;95190.69;5126059;27;20217;-75
2022/05/10 02:16:17;;;;;;;33.23;14.83;;;;;;;11.80;70.13;95192.69;5126123;27;20191;-76
2022/05/10 02:18:51;;;;;;;29.73;13.10;;;;;;;11.79;69.46;95203.34;5128765;27;20210;-76
2022/05/10 02:21:21;;;;;;;36.10;14.23;;;;;;;11.78;70.62;95202.53;5124420;27;20226;-75
2022/05/10 02:23:55;;;;;;;38.20;14.87;;;;;;;11.77;71.66;95197.56;5121418;27;20207;-75
2022/05/10 02:26:29;;;;;;;27.40;14.33;;;;;;;11.71;71.49;95199.19;5129367;27;20211;-76
2022/05/10 02:29:03;;;;;;;34.03;16.60;;;;;;;11.67;72.92;95192.78;5124519;27;20206;-76
2022/05/10 02:33:06;;;;;;;28.73;15.50;;;;;;;11.57;73.58;95191.66;5128132;27;20239;-76
2022/05/10 02:34:26;;;;;;;38.13;14.87;;;;;;;11.55;73.54;95191.84;5129352;27;20194;-75
2022/05/10 02:36:53;;;;;;;30.33;13.90;;;;;;;11.49;73.33;95189.28;5132556;27;20305;-75
2022/05/10 02:39:20;;;;;;;34.73;13.67;;;;;;;11.49;74.16;95191.88;5125882;27;20272;-75
2022/05/10 02:41:47;;;;;;;26.37;12.40;;;;;;;11.43;74.09;95190.16;5132585;27;20203;-75
2022/05/10 02:44:14;;;;;;;25.23;12.80;;;;;;;11.39;74.39;95193.16;5131529;27;21247;-76
2022/05/10 02:46:43;;;;;;;25.37;10.93;;;;;;;11.24;75.33;95173.63;5122734;27;20211;-75
2022/05/10 02:49:09;;;;;;;23.00;11.40;;;;;;;11.30;75.44;95191.81;5129686;27;20218;-76
2022/05/10 02:51:36;;;;;;;22.40;10.03;;;;;;;11.13;75.88;95193.31;5126516;27;20638;-76
2022/05/10 02:54:03;;;;;;;18.63;9.97;;;;;;;11.17;75.83;95196.25;5127958;27;20211;-75
2022/05/10 02:56:31;;;;;;;19.10;10.53;;;;;;;11.16;75.98;95195.50;5121799;27;20187;-75
2022/05/10 02:59:03;;;;;;;17.73;10.00;;;;;;;11.09;77.10;95202.50;5127337;27;20233;-77
2022/05/10 03:01:37;;;;;;;18.93;9.13;;;;;;;11.08;76.90;95200.91;5126109;27;20195;-76
2022/05/10 03:04:08;;;;;;;19.30;9.77;;;;;;;11.06;77.07;95202.13;5131726;27;20209;-76
2022/05/10 03:06:36;;;;;;;18.97;10.67;;;;;;;11.09;77.56;95209.50;5126771;27;20223;-75
2022/05/10 03:09:04;;;;;;;17.83;10.10;;;;;;;11.07;78.25;95198.53;5125097;27;20234;-75
2022/05/10 03:11:30;;;;;;;21.53;10.30;;;;;;;10.98;77.85;95194.56;5124844;27;20191;-76
2022/05/10 03:13:58;;;;;;;18.67;9.33;;;;;;;10.92;78.23;95206.59;5133141;27;20203;-76
2022/05/10 03:16:26;;;;;;;21.50;9.27;;;;;;;10.88;77.95;95184.59;5133542;27;20240;-77
2022/05/10 03:18:54;;;;;;;21.40;8.93;;;;;;;10.90;78.37;95202.59;5126384;27;20191;-76
2022/05/10 03:21:23;;;;;;;20.30;8.87;;;;;;;10.89;79.03;95199.19;5127160;27;20225;-76
2022/05/10 03:23:50;;;;;;;18.93;9.60;;;;;;;10.88;78.64;95202.78;5124995;27;20204;-76
2022/05/10 03:26:22;;;;;;;18.07;7.80;;;;;;;10.91;78.09;95199.00;5129756;27;20214;-76
2022/05/10 03:28:49;;;;;;;15.20;8.60;;;;;;;10.91;78.95;95202.38;5131732;27;20238;-76
2022/05/10 03:31:18;;;;;;;14.67;8.23;;;;;;;10.85;78.85;95200.59;5128741;27;20203;-76
2022/05/10 03:34:53;;;;;;;17.33;9.03;;;;;;;10.89;78.72;95204.41;5124892;27;20730;-76
2022/05/10 03:36:34;;;;;;;13.67;8.43;;;;;;;10.89;78.28;95204.41;5127611;27;20194;-76
2022/05/10 03:39:01;;;;;;;15.60;8.77;;;;;;;10.91;78.83;95212.78;5128177;27;20299;-76
2022/05/10 03:41:27;;;;;;;22.80;8.43;;;;;;;10.93;78.86;95207.38;5127547;27;20202;-76
2022/05/10 03:43:54;;;;;;;15.43;8.07;;;;;;;10.98;78.59;95216.16;5123661;27;20198;-75
2022/05/10 03:46:21;;;;;;;14.67;7.83;;;;;;;10.95;77.81;95213.97;5127781;27;20216;-75
2022/05/10 03:48:49;;;;;;;16.60;8.40;;;;;;;10.91;79.35;95214.59;5130287;27;20195;-73
2022/05/10 03:51:17;;;;;;;21.63;9.20;;;;;;;10.79;80.59;95202.22;5127162;27;20370;-74
2022/05/10 03:53:46;;;;;;;17.17;9.33;;;;;;;10.86;80.69;95214.41;5127697;27;20589;-74
2022/05/10 03:56:12;;;;;;;22.40;10.43;;;;;;;10.91;80.17;95207.56;5130934;27;20186;-75
2022/05/10 03:58:40;;;;;;;21.63;10.10;;;;;;;10.93;80.25;95217.78;5139686;27;20285;-75
2022/05/10 04:01:07;;;;;;;23.77;9.87;;;;;;;11.06;79.11;95218.53;5134800;27;20570;-73
2022/05/10 04:03:35;;;;;;;30.50;9.40;;;;;;;10.97;77.92;95218.97;5137622;27;20327;-73
2022/05/10 04:06:01;;;;;;;20.73;8.40;;;;;;;11.07;77.53;95227.94;5131488;27;20651;-74
2022/05/10 04:08:28;;;;;;;21.97;7.43;;;;;;;11.10;76.97;95230.13;5133176;27;20207;-73
2022/05/10 04:11:02;;;;;;;19.60;7.27;;;;;;;11.13;76.57;95227.13;5134875;27;20620;-74
2022/05/10 04:13:28;;;;;;;19.73;7.33;;;;;;;11.07;77.69;95233.16;5131150;27;20195;-73
2022/05/10 04:15:55;;;;;;;19.67;8.03;;;;;;;10.96;77.57;95222.59;5129343;27;20260;-74
2022/05/10 04:18:22;;;;;;;21.57;7.70;;;;;;;10.94;78.36;95233.19;5131961;27;20207;-73
2022/05/10 04:20:49;;;;;;;31.07;7.83;;;;;;;11.00;78.55;95234.97;5134522;27;20645;-73
2022/05/10 04:23:16;;;;;;;29.03;8.50;;;;;;;11.14;78.58;95233.13;5125764;27;20195;-74
2022/05/10 04:25:43;;;;;;;21.50;8.20;;;;;;;11.25;77.69;95240.28;5122348;27;20272;-73
2022/05/10 04:28:12;;;;;;;27.57;10.23;;;;;;;11.34;77.12;95233.84;5120817;27;20195;-73
2022/05/10 04:30:39;;;;;;;28.93;8.83;;;;;;;11.44;76.74;95241.16;5121064;27;20199;-73
2022/05/10 04:33:06;;;;;;;26.53;8.63;;;;;;;11.50;76.89;95238.53;5121144;27;20192;-73
2022/05/10 04:35:33;;;;;;;30.13;7.43;;;;;;;11.52;76.74;95235.72;5121293;27;20955;-72
2022/05/10 04:38:03;;;;;;;23.67;7.27;;;;;;;11.57;74.92;95238.50;5125089;27;20271;-73
2022/05/10 04:43:16;;;;;;;14.83;7.40;;;;;;;11.72;74.27;95237.22;5120693;27;20270;-74
2022/05/10 04:45:43;;;;;;;19.70;7.67;;;;;;;11.81;74.31;95232.56;5120777;27;20216;-73
2022/05/10 04:48:10;;;;;;;14.93;7.03;;;;;;;11.82;73.57;95237.56;5125651;27;20196;-74
2022/05/10 04:50:37;;;;;;;15.20;7.37;;;;;;;11.92;74.03;95244.91;5120711;27;20199;-74
2022/05/10 04:53:04;;;;;;;19.30;7.90;;;;;;;11.97;74.44;95244.28;5123458;27;20207;-75
2022/05/10 04:55:31;;;;;;;18.43;7.97;;;;;;;11.99;74.39;95243.06;5121275;27;20195;-75
2022/05/10 04:57:58;;;;;;;18.73;7.80;;;;;;;12.04;73.21;95245.81;5119040;27;20202;-75
2022/05/10 05:00:26;;;;;;;15.47;7.87;;;;;;;12.09;73.67;95250.41;5120224;27;20200;-75
2022/05/10 05:02:53;;;;;;;17.93;7.80;;;;;;;12.16;73.84;95249.34;5120612;27;20192;-74
2022/05/10 05:05:20;;;;;;;15.40;8.20;;;;;;;12.20;73.94;95244.50;5120670;27;20187;-73
2022/05/10 05:07:47;;;;;;;18.87;7.27;;;;;;;12.31;71.92;95249.03;5123067;27;20223;-73
2022/05/10 05:10:14;;;;;;;20.60;8.40;;;;;;;12.35;70.80;95256.19;5129701;27;20195;-84
2022/05/10 05:12:40;;;;;;;19.23;7.97;;;;;;;12.40;70.27;95252.97;5120285;27;20210;-73
2022/05/10 05:15:11;;;;;;;16.07;7.30;;;;;;;12.43;70.42;95248.13;5119074;27;20203;-75
2022/05/10 05:17:39;;;;;;;16.73;7.77;;;;;;;12.47;70.58;95253.69;5121075;27;20194;-74
2022/05/10 05:20:08;;;;;;;18.00;7.00;;;;;;;12.48;70.27;95247.47;5120233;27;20698;-73
2022/05/10 05:22:35;;;;;;;20.03;8.23;;;;;;;12.55;70.06;95245.59;5122615;27;20192;-74
2022/05/10 05:25:02;;;;;;;17.43;7.93;;;;;;;12.51;70.16;95239.22;5119472;28;20191;-74
2022/05/10 05:27:28;;;;;;;20.50;10.67;;;;;;;12.64;69.68;95254.72;5119009;28;20686;-75
2022/05/10 05:29:56;;;;;;;21.63;8.93;;;;;;;12.68;69.47;95260.31;5121835;28;20195;-75
2022/05/10 05:32:31;;;;;;;18.57;7.40;;;;;;;12.74;69.42;95243.81;5120586;28;20322;-74
2022/05/10 05:34:59;;;;;;;18.43;8.47;;;;;;;12.71;68.97;95232.00;5121131;28;20203;-72
2022/05/10 05:37:37;;;;;;;19.83;7.70;;;;;;;12.76;69.10;95244.38;5123393;27;20685;-73
2022/05/10 05:40:07;;;;;;;18.20;7.03;;;;;;;12.77;69.63;95243.38;5121319;28;20889;-72
2022/05/10 05:42:34;;;;;;;13.37;7.50;;;;;;;12.83;69.04;95243.31;5120676;28;20188;-73
2022/05/10 05:45:01;;;;;;;27.17;7.90;;;;;;;12.85;68.41;95246.50;5121160;27;20553;-73
2022/05/10 05:47:28;;;;;;;20.80;7.80;;;;;;;12.95;67.69;95241.56;5120535;28;20227;-73
2022/05/10 05:49:55;;;;;;;14.20;8.03;;;;;;;12.88;67.57;95237.44;5121108;28;20674;-71
2022/05/10 05:52:25;;;;;;;19.43;7.90;;;;;;;12.87;67.92;95239.22;5119560;27;20195;-72
2022/05/10 05:54:53;;;;;;;17.63;8.07;;;;;;;12.91;67.79;95237.00;5124445;27;20852;-72
2022/05/10 05:57:21;;;;;;;20.60;8.00;;;;;;;12.92;68.07;95239.41;5122584;28;20647;-73
2022/05/10 05:59:48;;;;;;;14.87;7.23;;;;;;;13.02;67.61;95244.09;5122646;28;20218;-73
2022/05/10 06:02:16;;;;;;;18.87;7.60;;;;;;;13.15;67.26;95237.97;5122114;27;20191;-74
2022/05/10 06:04:43;;;;;;;19.10;7.63;;;;;;;13.22;65.85;95231.63;5125012;27;20223;-73
2022/05/10 06:07:11;;;;;;;18.10;7.53;;;;;;;13.32;64.79;95236.34;5125342;27;20284;-72
2022/05/10 06:09:39;;;;;;;15.00;7.20;;;;;;;13.38;63.86;95238.88;5119832;27;20576;-73
2022/05/10 06:12:09;;;;;;;17.10;7.77;;;;;;;13.41;64.01;95237.63;5125062;27;20199;-78
2022/05/10 06:14:36;;;;;;;17.53;7.57;;;;;;;13.49;63.77;95240.75;5124577;27;20211;-80
2022/05/10 06:17:03;;;;;;;14.00;7.60;;;;;;;13.64;63.31;95246.38;5124218;27;20196;-76
2022/05/10 06:19:32;;;;;;;13.63;7.37;;;;;;;13.73;63.16;95249.47;5121957;27;20565;-77
2022/05/10 06:21:58;;;;;;;20.93;7.80;;;;;;;13.82;63.82;95237.69;5121919;27;20241;-78
2022/05/10 06:24:25;;;;;;;46.33;9.93;;;;;;;13.90;62.68;95239.16;5124881;27;20199;-78
2022/05/10 06:26:54;;;;;;;37.40;9.33;;;;;;;13.97;62.20;95234.63;5129898;27;20322;-75
2022/05/10 06:29:20;;;;;;;17.60;7.00;;;;;;;14.10;60.71;95242.28;5130212;27;20362;-74
2022/05/10 06:31:48;;;;;;;21.97;7.30;;;;;;;14.15;60.61;95237.16;5122686;27;20222;-78
2022/05/10 06:34:15;;;;;;;14.83;6.50;;;;;;;14.27;59.75;95235.38;5123861;27;20791;-78
2022/05/10 06:36:42;;;;;;;17.73;7.40;;;;;;;14.26;59.43;95238.22;5129524;27;20194;-79
2022/05/10 06:39:09;;;;;;;56.03;9.77;;;;;;;14.33;58.31;95244.97;5123749;27;20189;-78
2022/05/10 06:41:37;;;;;;;36.83;8.10;;;;;;;14.41;58.23;95238.59;5125092;27;20579;-78
2022/05/10 06:44:06;;;;;;;19.03;8.00;;;;;;;14.48;57.83;95232.25;5121223;27;20192;-78
2022/05/10 06:46:34;;;;;;;21.97;7.20;;;;;;;14.39;57.32;95227.56;5123017;27;20242;-77
2022/05/10 06:49:01;;;;;;;16.13;7.60;;;;;;;14.55;57.41;95237.34;5123575;27;20196;-77
2022/05/10 06:51:29;;;;;;;19.67;7.00;;;;;;;14.55;57.37;95230.28;5123341;27;20204;-78
2022/05/10 06:53:56;;;;;;;37.37;9.37;;;;;;;14.60;56.82;95238.25;5125003;27;20192;-78
2022/05/10 06:56:24;;;;;;;18.63;7.67;;;;;;;14.68;56.53;95224.84;5123146;27;20698;-79
2022/05/10 06:58:51;;;;;;;16.03;6.63;;;;;;;14.80;56.75;95229.25;5122411;27;20248;-80
2022/05/10 07:01:19;;;;;;;27.87;7.40;;;;;;;14.93;56.97;95229.00;5122985;27;20195;-79
2022/05/10 07:03:49;;;;;;;22.17;7.67;;;;;;;15.03;56.15;95235.25;5126243;27;20235;-80
2022/05/10 07:06:19;;;;;;;14.93;6.10;;;;;;;15.13;55.04;95235.44;5110098;27;20192;-88
2022/05/10 07:08:46;;;;;;;15.73;6.40;;;;;;;15.27;54.58;95231.53;5123675;27;20677;-81
2022/05/10 07:11:13;;;;;;;25.50;6.93;;;;;;;15.43;53.76;95221.38;5126818;27;20670;-85
2022/05/10 07:13:40;;;;;;;19.37;6.60;;;;;;;15.56;53.17;95232.38;5125988;27;20291;-83
2022/05/10 07:16:07;;;;;;;18.00;7.20;;;;;;;15.61;53.24;95229.84;5124488;27;20211;-74
2022/05/10 07:18:36;;;;;;;24.77;6.93;;;;;;;15.70;53.28;95231.06;5123650;27;20302;-75
2022/05/10 07:21:04;;;;;;;18.47;6.93;;;;;;;15.75;52.37;95227.75;5121442;27;20649;-73
2022/05/10 07:23:32;;;;;;;14.77;6.80;;;;;;;15.82;52.10;95223.16;5123956;27;20231;-74
2022/05/10 07:25:59;;;;;;;19.23;6.80;;;;;;;15.93;52.35;95224.13;5122854;27;20200;-73
2022/05/10 07:28:29;;;;;;;11.07;5.77;;;;;;;16.04;51.64;95221.44;5123092;27;20617;-74
2022/05/10 07:30:56;;;;;;;15.57;6.47;;;;;;;16.14;51.51;95226.84;5123481;27;20196;-72
2022/05/10 07:33:24;;;;;;;21.67;6.47;;;;;;;16.25;51.40;95228.59;5122849;27;20183;-73
2022/05/10 07:38:37;;;;;;;21.03;5.47;;;;;;;16.45;50.61;95228.09;5120893;27;20214;-73
2022/05/10 07:41:04;;;;;;;11.83;4.80;;;;;;;16.51;50.13;95221.88;5123344;27;20188;-73
2022/05/10 07:43:34;;;;;;;9.03;4.30;;;;;;;16.62;48.92;95218.44;5122332;27;20188;-73
2022/05/10 07:46:01;;;;;;;32.27;9.37;;;;;;;16.70;49.07;95222.47;5123812;27;20681;-73
2022/05/10 07:48:28;;;;;;;15.90;5.23;;;;;;;16.80;48.62;95220.75;5122109;27;20218;-73
2022/05/10 07:50:56;;;;;;;14.10;4.50;;;;;;;16.96;48.68;95221.78;5121021;27;20225;-72
2022/05/10 07:53:23;;;;;;;10.33;4.60;;;;;;;16.94;47.82;95215.97;5122871;27;20199;-72
2022/05/10 07:55:52;;;;;;;18.67;6.33;;;;;;;16.98;47.92;95220.50;5121611;27;20654;-72
2022/05/10 07:58:19;;;;;;;16.57;5.63;;;;;;;17.11;47.19;95226.44;5125416;27;20192;-72
2022/05/10 08:00:46;;;;;;;14.70;4.53;;;;;;;17.24;46.93;95218.16;5122350;27;20203;-73
2022/05/10 08:03:18;;;;;;;20.93;6.13;;;;;;;17.32;47.12;95213.28;5122685;27;20202;-75
2022/05/10 08:05:45;;;;;;;18.27;5.10;;;;;;;17.47;46.77;95207.41;5121864;27;20203;-74
2022/05/10 08:08:17;;;;;;;14.33;4.83;;;;;;;17.57;44.52;95212.81;5124726;27;20671;-75
2022/05/10 08:10:45;;;;;;;27.67;4.70;;;;;;;17.64;43.58;95208.13;5125114;27;20712;-81
2022/05/10 08:13:13;;;;;;;13.93;3.60;;;;;;;17.71;43.54;95206.09;5122662;27;20192;-76
2022/05/10 08:15:41;;;;;;;8.43;3.63;;;;;;;17.86;43.03;95205.47;5119808;27;20252;-76
2022/05/10 08:18:09;;;;;;;10.13;3.58;;;;;;;17.96;42.00;95214.22;5123282;27;20261;-77
2022/05/10 08:20:36;;;;;;;8.10;2.95;;;;;;;18.08;40.79;95212.22;5118005;27;20228;-78
2022/05/10 08:23:03;;;;;;;9.63;2.35;;;;;;;18.18;38.68;95205.47;5123215;27;20195;-77
2022/05/10 08:25:32;;;;;;;12.77;3.85;;;;;;;18.25;36.07;95200.78;5120586;27;20192;-77
2022/05/10 08:27:59;;;;;;;30.15;6.20;;;;;;;18.36;37.02;95205.88;5120985;27;20219;-78
2022/05/10 08:30:26;;;;;;;6.45;2.40;;;;;;;18.48;36.69;95203.88;5121079;27;20199;-77
2022/05/10 08:32:53;;;;;;;15.52;4.78;;;;;;;18.55;37.08;95207.09;5121700;27;20206;-78
2022/05/10 08:35:20;;;;;;;11.50;3.30;;;;;;;18.65;37.02;95206.34;5119418;27;20194;-77
2022/05/10 08:37:47;;;;;;;7.90;3.03;;;;;;;18.68;37.33;95195.31;5127618;27;20708;-78
2022/05/10 08:40:23;;;;;;;8.65;3.00;;;;;;;18.68;36.92;95184.78;5121498;27;20199;-76
2022/05/10 08:42:55;;;;;;;7.55;3.30;;;;;;;18.83;37.22;95200.66;5123464;27;20199;-76
2022/05/10 08:45:26;;;;;;;11.40;3.47;;;;;;;18.95;37.56;95197.84;5121555;27;20195;-76
2022/05/10 08:47:53;;;;;;;18.98;5.28;;;;;;;19.08;37.76;95195.50;5117191;27;20205;-76
2022/05/10 08:50:20;;;;;;;4.47;3.05;;;;;;;19.22;37.31;95196.63;5121568;27;20275;-76
2022/05/10 08:52:51;;;;;;;12.60;3.75;;;;;;;19.30;37.68;95178.75;5120416;27;20199;-77
2022/05/10 08:55:22;;;;;;;8.15;3.28;;;;;;;19.45;36.92;95176.19;5121152;27;20200;-77
2022/05/10 08:57:53;;;;;;;8.00;3.72;;;;;;;19.62;36.87;95184.66;5121627;27;20199;-76
2022/05/10 09:00:29;;;;;;;10.00;3.70;;;;;;;19.69;36.97;95182.53;5122674;27;20187;-77
2022/05/10 09:02:58;;;;;;;5.68;2.80;;;;;;;19.80;37.13;95182.31;5121349;27;20580;-77
2022/05/10 09:05:31;;;;;;;4.07;2.85;;;;;;;19.90;36.25;95184.16;5121594;27;20188;-76
2022/05/10 09:08:05;;;;;;;4.80;2.80;;;;;;;19.99;35.74;95179.16;5122778;27;20200;-77
2022/05/10 09:10:38;;;;;;;9.02;5.30;;;;;;;19.99;36.58;95171.25;5119523;27;20545;-76
2022/05/10 09:13:08;;;;;;;12.23;4.43;;;;;;;20.11;37.17;95172.56;5122397;27;20218;-76
2022/05/10 09:15:37;;;;;;;7.47;3.40;;;;;;;20.27;37.49;95168.09;5120375;28;20252;-76
2022/05/10 09:18:09;;;;;;;35.80;10.45;;;;;;;20.48;37.35;95169.66;5121683;27;20215;-77
2022/05/10 09:20:45;;;;;;;11.93;4.50;;;;;;;20.68;37.39;95182.84;5120072;27;20238;-79
2022/05/10 09:23:27;;;;;;;14.98;3.50;;;;;;;20.78;36.05;95171.44;5118754;28;20202;-77
2022/05/10 09:25:57;;;;;;;10.48;3.20;;;;;;;20.91;36.14;95168.25;5120704;28;20192;-77
2022/05/10 09:28:33;;;;;;;7.78;3.40;;;;;;;21.05;35.40;95163.97;5121351;28;20212;-76
2022/05/10 09:36:53;;;;;;;14.43;5.88;;;;;;;21.58;35.65;95162.41;5123599;27;20246;-80
2022/05/10 09:39:29;;;;;;;15.60;3.95;;;;;;;21.74;35.37;95155.94;5125784;27;20191;-79
2022/05/10 09:41:56;;;;;;;25.27;5.45;;;;;;;21.89;35.13;95155.09;5124998;27;20574;-80
2022/05/10 09:44:29;;;;;;;27.10;4.63;;;;;;;22.07;35.33;95159.72;5124081;27;20214;-79
2022/05/10 09:47:14;;;;;;;15.05;6.18;;;;;;;22.19;34.72;95152.22;5123346;27;20715;-79
2022/05/10 09:49:41;;;;;;;7.93;3.17;;;;;;;22.18;33.39;95163.06;5124593;27;20697;-80
2022/05/10 09:52:18;;;;;;;11.60;3.80;;;;;;;22.37;34.61;95154.16;5125476;27;20196;-79
2022/05/10 09:54:47;;;;;;;13.20;4.03;;;;;;;22.59;34.61;95156.34;5127127;27;20195;-78
2022/05/10 09:57:28;;;;;;;8.02;3.50;;;;;;;22.86;33.17;95161.09;5124012;27;20191;-81
2022/05/10 09:59:56;;;;;;;22.05;4.80;;;;;;;23.04;32.86;95155.88;5124089;27;20240;-79
2022/05/10 10:02:31;;;;;;;5.78;3.38;;;;;;;23.29;32.96;95146.03;5125889;27;20188;-78
2022/05/10 10:04:59;;;;;;;6.40;3.13;;;;;;;23.37;31.91;95140.09;5130967;27;20215;-78
2022/05/10 10:07:28;;;;;;;10.60;2.90;;;;;;;23.30;31.59;95129.81;5123052;27;20223;-79
2022/05/10 10:09:56;;;;;;;8.23;3.03;;;;;;;23.31;32.34;95128.75;5123623;27;20286;-79
2022/05/10 10:12:33;;;;;;;6.80;2.97;;;;;;;23.48;31.63;95126.44;5122469;27;20625;-79
2022/05/10 10:15:16;;;;;;;8.68;3.40;;;;;;;23.59;32.18;95127.84;5132233;27;20195;-79
2022/05/10 10:17:51;;;;;;;12.23;2.80;;;;;;;23.77;32.15;95122.81;5130367;27;20619;-79
2022/05/10 10:20:30;;;;;;;10.30;3.17;;;;;;;23.90;32.68;95119.41;5119526;27;20572;-78
2022/05/10 10:23:01;;;;;;;6.40;3.42;;;;;;;24.10;29.64;95111.94;5128276;27;20203;-78
2022/05/10 10:25:33;;;;;;;6.70;3.28;;;;;;;24.19;29.80;95112.06;5129407;27;20230;-78
2022/05/10 10:28:06;;;;;;;3.65;2.60;;;;;;;24.20;29.99;95111.78;5138634;27;20219;-78
2022/05/10 10:30:38;;;;;;;4.40;2.67;;;;;;;24.32;30.37;95115.84;5130358;27;20196;-78
2022/05/10 10:33:12;;;;;;;5.10;2.72;;;;;;;24.38;30.20;95112.81;5130618;27;20199;-78
2022/05/10 10:35:45;;;;;;;6.85;3.03;;;;;;;24.59;29.22;95106.03;5122610;27;20285;-78
2022/05/10 10:38:20;;;;;;;8.15;3.17;;;;;;;24.47;29.68;95110.28;5131305;27;20238;-78
2022/05/10 10:40:55;;;;;;;5.78;2.75;;;;;;;24.19;29.95;95104.91;5130872;27;20199;-80
2022/05/10 10:43:27;;;;;;;3.75;2.65;;;;;;;24.25;30.16;95100.28;5126460;27;20197;-78
2022/05/10 10:46:02;;;;;;;3.70;2.75;;;;;;;24.56;29.74;95098.66;5124323;27;20204;-77
2022/05/10 10:48:33;;;;;;;6.95;3.33;;;;;;;24.82;29.39;95096.31;5125057;27;20243;-78
2022/05/10 10:51:00;;;;;;;6.82;3.13;;;;;;;24.70;29.21;95091.47;5124545;27;20239;-77
2022/05/10 10:53:28;;;;;;;7.35;2.72;;;;;;;24.38;29.18;95091.56;5122730;27;20256;-77
2022/05/10 10:56:35;;;;;;;6.68;2.75;;;;;;;24.41;30.20;95085.66;5124063;27;20195;-77
2022/05/10 10:59:25;;;;;;;5.13;2.90;;;;;;;24.71;30.88;95082.41;5124200;27;20199;-79
2022/05/10 11:02:11;;;;;;;8.32;2.90;;;;;;;24.78;29.57;95076.72;5123591;27;20574;-80
2022/05/10 11:04:57;;;;;;;4.72;2.88;;;;;;;25.26;29.15;95075.19;5123535;27;20192;-80
2022/05/10 11:07:34;;;;;;;9.32;2.95;;;;;;;25.36;27.22;95074.97;5123989;27;20195;-80
2022/05/10 11:10:11;;;;;;;7.20;2.80;;;;;;;25.73;28.07;95081.88;5125986;27;20217;-79
2022/05/10 11:12:53;;;;;;;5.00;2.55;;;;;;;26.01;26.33;95071.88;5124101;27;20191;-80
2022/05/10 11:15:32;;;;;;;7.43;2.88;;;;;;;26.44;25.69;95075.59;5122045;27;20222;-81
2022/05/10 11:18:28;;;;;;;5.25;2.83;;;;;;;26.88;25.00;95072.03;5123438;27;20191;-80
2022/05/10 11:21:05;;;;;;;9.18;3.17;;;;;;;26.93;25.96;95066.53;5123418;27;20320;-79
2022/05/10 11:23:39;;;;;;;4.30;2.92;;;;;;;26.68;25.85;95063.75;5123700;27;20203;-80
2022/05/10 11:26:22;;;;;;;7.72;3.55;;;;;;;26.23;27.24;95065.78;5124051;27;20191;-79
2022/05/10 11:29:11;;;;;;;9.50;3.10;;;;;;;26.26;27.84;95049.94;5124287;27;20216;-80
2022/05/10 11:31:44;;;;;;;6.93;2.80;;;;;;;26.42;27.79;95047.66;5123413;27;20192;-80
2022/05/10 11:34:36;;;;;;;16.58;3.70;;;;;;;26.13;27.53;95037.47;5123785;27;20689;-81
2022/05/10 11:37:07;;;;;;;90.60;10.18;;;;;;;26.27;27.14;95034.72;5125082;27;20227;-80
2022/05/10 11:40:05;;;;;;;9.55;3.63;;;;;;;26.66;25.94;95037.41;5123300;27;20682;-80
2022/05/10 11:42:45;;;;;;;10.30;2.78;;;;;;;27.08;24.04;95038.63;5123036;27;20285;-80
2022/05/10 11:45:50;;;;;;;5.57;2.35;;;;;;;27.18;23.30;95035.66;5126470;27;20200;-80
2022/05/10 11:48:36;;;;;;;67.13;6.38;;;;;;;27.45;24.85;95034.59;5121671;27;20262;-79
2022/05/10 11:51:43;;;;;;;10.27;2.83;;;;;;;27.64;24.95;95039.63;5122653;27;20203;-77
2022/05/10 11:54:45;;;;;;;9.63;2.85;;;;;;;27.42;24.96;95025.31;5086673;27;20290;-77
2022/05/10 11:57:14;;;;;;;7.75;2.50;;;;;;;27.51;24.43;95025.31;5121900;27;20195;-78
2022/05/10 11:59:41;;;;;;;13.27;3.03;;;;;;;27.57;24.82;95027.53;5121174;27;20196;-76